Time;durP1;ratioP1;P1;durP2;ratioP2;P2;SDS_P1;SDS_P2;PMS_P1;PMS_P2;Temp;Humidity;BMP_temperature;BMP_pressure;BME280_temperature;BME280_humidity;BME280_pressure;Samples;Min_cycle;Max_cycle;Signal;HPM_P1;HPM_P2
2024/01/10 00:01:58;;;;;;;45.27;25.77;;;;;;;-142.06;100.00;64312.41;5051501;28;20290;-80
2024/01/10 00:04:25;;;;;;;44.57;25.13;;;;;;;-142.06;100.00;64312.41;5051123;28;20739;-79
2024/01/10 00:06:52;;;;;;;45.50;25.90;;;;;;;-142.06;100.00;64312.41;5048968;28;20261;-79
2024/01/10 00:09:19;;;;;;;50.77;25.63;;;;;;;-142.06;100.00;64312.41;5051205;28;20299;-80
2024/01/10 00:11:45;;;;;;;48.07;25.93;;;;;;;-142.06;100.00;64312.41;5051610;28;20201;-79
2024/01/10 00:14:12;;;;;;;47.80;26.00;;;;;;;-142.06;100.00;64312.41;5051677;28;20210;-79
2024/01/10 00:16:39;;;;;;;52.53;27.07;;;;;;;-142.06;100.00;64312.41;5051640;28;20193;-79
2024/01/10 00:19:06;;;;;;;49.00;27.27;;;;;;;-142.06;100.00;64312.41;5060947;28;20277;-80
2024/01/10 00:21:35;;;;;;;50.13;27.23;;;;;;;-142.06;100.00;64312.41;5053901;28;20224;-80
2024/01/10 00:24:02;;;;;;;49.63;27.33;;;;;;;-142.06;100.00;64312.41;5056252;28;20209;-80
2024/01/10 00:26:28;;;;;;;49.57;27.73;;;;;;;-142.06;100.00;64312.41;5058055;28;20597;-80
2024/01/10 00:28:55;;;;;;;52.80;26.50;;;;;;;-142.06;100.00;64312.41;5030283;28;20275;-79
2024/01/10 00:31:30;;;;;;;50.90;26.83;;;;;;;-142.06;100.00;64312.41;5057973;28;20662;-79
2024/01/10 00:33:57;;;;;;;54.73;27.57;;;;;;;-142.06;100.00;64312.41;5036305;28;20193;-79
2024/01/10 00:36:24;;;;;;;47.70;25.30;;;;;;;-142.06;100.00;64312.41;5052097;28;20248;-80
2024/01/10 00:38:50;;;;;;;47.00;26.13;;;;;;;-142.06;100.00;64312.41;5052341;28;20217;-79
2024/01/10 00:41:17;;;;;;;46.77;25.53;;;;;;;-142.06;100.00;64312.41;5060533;28;20200;-79
2024/01/10 00:43:45;;;;;;;49.63;25.63;;;;;;;-142.06;100.00;64312.41;5051613;28;20240;-80
2024/01/10 00:46:12;;;;;;;48.50;25.80;;;;;;;-142.06;100.00;64312.41;5055151;28;20193;-80
2024/01/10 00:48:39;;;;;;;47.93;25.77;;;;;;;-142.06;100.00;64312.41;5050843;28;20229;-79
2024/01/10 00:51:08;;;;;;;51.07;26.93;;;;;;;-142.06;100.00;64312.41;5038833;28;20204;-81
2024/01/10 00:53:35;;;;;;;52.20;26.27;;;;;;;-142.06;100.00;64312.41;5051260;28;20235;-79
2024/01/10 00:56:02;;;;;;;52.10;26.63;;;;;;;-142.06;100.00;64312.41;5049645;28;20198;-80
2024/01/10 00:58:29;;;;;;;49.47;26.33;;;;;;;-142.06;100.00;64312.41;5055524;28;20272;-79
2024/01/10 01:00:56;;;;;;;46.30;26.17;;;;;;;-142.06;100.00;64312.41;5057294;28;20190;-79
2024/01/10 01:03:23;;;;;;;50.00;25.80;;;;;;;-142.06;100.00;64312.41;5058038;28;20188;-79
2024/01/10 01:05:49;;;;;;;44.17;25.53;;;;;;;-142.06;100.00;64312.41;5034245;28;20212;-80
2024/01/10 01:08:16;;;;;;;42.23;24.23;;;;;;;-142.06;100.00;64312.41;5054220;28;20677;-80
2024/01/10 01:10:46;;;;;;;47.17;25.17;;;;;;;-142.06;100.00;64312.41;5049490;28;20200;-80
2024/01/10 01:13:12;;;;;;;49.17;25.53;;;;;;;-142.06;100.00;64312.41;5052220;28;20209;-80
2024/01/10 01:15:39;;;;;;;50.53;25.37;;;;;;;-142.06;100.00;64312.41;5059009;28;20669;-79
2024/01/10 01:18:06;;;;;;;50.67;25.70;;;;;;;-142.06;100.00;64312.41;5055928;28;20243;-79
2024/01/10 01:20:33;;;;;;;52.50;25.90;;;;;;;-142.06;100.00;64312.41;5053165;28;20666;-80
2024/01/10 01:23:00;;;;;;;46.63;25.53;;;;;;;-142.06;100.00;64312.41;5023059;28;20292;-81
2024/01/10 01:25:26;;;;;;;47.40;24.67;;;;;;;-142.06;100.00;64312.41;5053711;28;20206;-79
2024/01/10 01:27:53;;;;;;;51.47;26.13;;;;;;;-142.06;100.00;64312.41;5057306;28;20543;-79
2024/01/10 01:30:21;;;;;;;48.53;25.30;;;;;;;-142.06;100.00;64312.41;5055821;28;20220;-80
2024/01/10 01:32:48;;;;;;;48.60;26.30;;;;;;;-142.06;100.00;64312.41;5053136;28;20262;-79
2024/01/10 01:35:21;;;;;;;50.17;26.87;;;;;;;-142.06;100.00;64312.41;5053672;28;20690;-81
2024/01/10 01:37:51;;;;;;;48.73;26.20;;;;;;;-142.06;100.00;64312.41;5056074;28;20216;-79
2024/01/10 01:40:18;;;;;;;48.00;25.20;;;;;;;-142.06;100.00;64312.41;5068878;28;20189;-79
2024/01/10 01:42:46;;;;;;;53.13;27.23;;;;;;;-142.06;100.00;64312.41;5054953;28;20220;-79
2024/01/10 01:45:13;;;;;;;48.37;26.00;;;;;;;-142.06;100.00;64312.41;5051204;28;20197;-79
2024/01/10 01:47:40;;;;;;;48.70;24.97;;;;;;;-142.06;100.00;64312.41;5053914;28;20234;-79
2024/01/10 01:50:07;;;;;;;48.93;25.40;;;;;;;-142.06;100.00;64312.41;5055365;28;20252;-80
2024/01/10 01:52:34;;;;;;;50.80;25.73;;;;;;;-142.06;100.00;64312.41;5058698;28;20243;-79
2024/01/10 01:55:02;;;;;;;54.50;26.10;;;;;;;-142.06;100.00;64312.41;5059401;28;20251;-79
2024/01/10 01:57:29;;;;;;;50.00;26.40;;;;;;;-142.06;100.00;64312.41;5042951;28;20231;-79
2024/01/10 01:59:56;;;;;;;48.17;24.97;;;;;;;-142.06;100.00;64312.41;5054814;28;20229;-79
2024/01/10 02:02:23;;;;;;;46.70;24.77;;;;;;;-142.06;100.00;64312.41;5041189;28;20246;-79
2024/01/10 02:04:50;;;;;;;49.73;25.33;;;;;;;-142.06;100.00;64312.41;5061736;28;20192;-79
2024/01/10 02:07:17;;;;;;;50.20;26.07;;;;;;;-142.06;100.00;64312.41;5050230;28;20196;-80
2024/01/10 02:09:44;;;;;;;48.27;25.77;;;;;;;-142.06;100.00;64312.41;5058976;28;20233;-79
2024/01/10 02:12:10;;;;;;;49.90;25.47;;;;;;;-142.06;100.00;64312.41;5062668;28;20193;-80
2024/01/10 02:14:37;;;;;;;48.03;24.90;;;;;;;-142.06;100.00;64312.41;5054260;28;20225;-79
2024/01/10 02:17:05;;;;;;;48.77;27.03;;;;;;;-142.06;100.00;64312.41;5051154;28;20467;-79
2024/01/10 02:19:34;;;;;;;50.87;25.70;;;;;;;-142.06;100.00;64312.41;5057737;28;20208;-79
2024/01/10 02:22:02;;;;;;;48.07;26.30;;;;;;;-142.06;100.00;64312.41;5060726;28;20206;-79
2024/01/10 02:24:29;;;;;;;53.63;26.73;;;;;;;-142.06;100.00;64312.41;5053404;28;20444;-79
2024/01/10 02:26:57;;;;;;;50.67;25.77;;;;;;;-142.06;100.00;64312.41;5050387;28;20817;-79
2024/01/10 02:29:24;;;;;;;48.13;26.30;;;;;;;-142.06;100.00;64312.41;5056661;28;20471;-79
2024/01/10 02:31:51;;;;;;;50.00;25.60;;;;;;;-142.06;100.00;64312.41;5033713;28;20197;-79
2024/01/10 02:34:18;;;;;;;51.23;26.07;;;;;;;-142.06;100.00;64312.41;5057438;28;20204;-80
2024/01/10 02:36:45;;;;;;;51.50;25.10;;;;;;;-142.06;100.00;64312.41;5051783;28;20452;-80
2024/01/10 02:39:12;;;;;;;51.00;26.30;;;;;;;-142.06;100.00;64312.41;5047663;28;20229;-79
2024/01/10 02:41:38;;;;;;;49.67;25.57;;;;;;;-142.06;100.00;64312.41;5045335;28;20247;-79
2024/01/10 02:44:05;;;;;;;50.17;26.93;;;;;;;-142.06;100.00;64312.41;5056481;28;20223;-80
2024/01/10 02:46:32;;;;;;;48.73;25.37;;;;;;;-142.06;100.00;64312.41;5055750;28;20722;-79
2024/01/10 02:48:58;;;;;;;48.17;26.17;;;;;;;-142.06;100.00;64312.41;5049001;28;20473;-79
2024/01/10 02:51:27;;;;;;;51.27;26.10;;;;;;;-142.06;100.00;64312.41;5056041;28;20276;-80
2024/01/10 02:53:53;;;;;;;50.07;25.67;;;;;;;-142.06;100.00;64312.41;5035264;28;20193;-79
2024/01/10 02:56:20;;;;;;;50.00;25.53;;;;;;;-142.06;100.00;64312.41;5042104;28;20251;-79
2024/01/10 02:58:47;;;;;;;48.47;24.57;;;;;;;-142.06;100.00;64312.41;5054177;28;20217;-79
2024/01/10 03:01:14;;;;;;;47.50;25.83;;;;;;;-142.06;100.00;64312.41;5052891;28;20198;-79
2024/01/10 03:03:41;;;;;;;47.73;26.90;;;;;;;-142.06;100.00;64312.41;5053734;28;20194;-80
2024/01/10 03:06:08;;;;;;;48.83;25.77;;;;;;;-142.06;100.00;64312.41;5055489;28;20568;-79
2024/01/10 03:08:36;;;;;;;45.70;24.70;;;;;;;-142.06;100.00;64312.41;5049372;28;20448;-79
2024/01/10 03:11:02;;;;;;;49.13;25.87;;;;;;;-142.06;100.00;64312.41;5053066;28;20285;-79
2024/01/10 03:13:29;;;;;;;49.30;25.67;;;;;;;-142.06;100.00;64312.41;5052427;28;20272;-80
2024/01/10 03:15:56;;;;;;;49.57;25.37;;;;;;;-142.06;100.00;64312.41;5056779;28;20267;-80
2024/01/10 03:18:23;;;;;;;51.20;26.30;;;;;;;-142.06;100.00;64312.41;5048264;28;20228;-79
2024/01/10 03:20:50;;;;;;;54.67;26.90;;;;;;;-142.06;100.00;64312.41;5059546;28;20432;-79
2024/01/10 03:23:17;;;;;;;46.20;25.23;;;;;;;-142.06;100.00;64312.41;5053921;28;20189;-79
2024/01/10 03:25:44;;;;;;;53.07;26.03;;;;;;;-142.06;100.00;64312.41;5053926;28;20493;-79
2024/01/10 03:28:11;;;;;;;51.93;25.47;;;;;;;-142.06;100.00;64312.41;5052493;28;20288;-80
2024/01/10 03:30:37;;;;;;;62.33;31.23;;;;;;;-142.06;100.00;64312.41;5037258;28;20275;-79
2024/01/10 03:33:06;;;;;;;57.20;30.03;;;;;;;-142.06;100.00;64312.41;5053786;28;20197;-79
2024/01/10 03:35:33;;;;;;;55.27;28.53;;;;;;;-142.06;100.00;64312.41;5038322;28;20535;-79
2024/01/10 03:38:00;;;;;;;55.70;26.27;;;;;;;-142.06;100.00;64312.41;5057587;28;20225;-79
2024/01/10 03:40:26;;;;;;;54.77;27.63;;;;;;;-142.06;100.00;64312.41;5051569;28;20288;-79
2024/01/10 03:42:53;;;;;;;54.33;27.77;;;;;;;-142.06;100.00;64312.41;5053376;28;20483;-79
2024/01/10 03:45:22;;;;;;;54.67;27.40;;;;;;;-142.06;100.00;64312.41;5076126;28;20284;-79
2024/01/10 03:47:50;;;;;;;52.13;26.10;;;;;;;-142.06;100.00;64312.41;5053614;28;20308;-79
2024/01/10 03:50:20;;;;;;;54.07;26.67;;;;;;;-142.06;100.00;64312.41;5048604;28;20990;-79
2024/01/10 03:52:47;;;;;;;53.83;27.43;;;;;;;-142.06;100.00;64312.41;5049789;28;20444;-79
2024/01/10 03:55:15;;;;;;;56.63;26.73;;;;;;;-142.06;100.00;64312.41;5053296;28;20468;-79
2024/01/10 03:57:42;;;;;;;52.83;27.30;;;;;;;-142.06;100.00;64312.41;5050645;28;20440;-79
2024/01/10 04:00:09;;;;;;;45.80;26.77;;;;;;;-142.06;100.00;64312.41;5059954;28;21027;-79
2024/01/10 04:02:38;;;;;;;51.20;27.00;;;;;;;-142.06;100.00;64312.41;5054311;28;21000;-80
2024/01/10 04:05:08;;;;;;;54.37;28.03;;;;;;;-142.06;100.00;64312.41;5074560;28;20192;-79
2024/01/10 04:07:36;;;;;;;52.10;27.07;;;;;;;-142.06;100.00;64312.41;5052957;28;20436;-79
2024/01/10 04:10:03;;;;;;;56.23;28.67;;;;;;;-142.06;100.00;64312.41;5051710;28;20843;-80
2024/01/10 04:12:30;;;;;;;50.97;27.63;;;;;;;-142.06;100.00;64312.41;5059702;28;20444;-79
2024/01/10 04:14:56;;;;;;;54.27;27.43;;;;;;;-142.06;100.00;64312.41;5051575;28;20533;-79
2024/01/10 04:17:23;;;;;;;56.83;27.60;;;;;;;-142.06;100.00;64312.41;5059571;28;20439;-79
2024/01/10 04:19:50;;;;;;;52.83;28.10;;;;;;;-142.06;100.00;64312.41;5052520;28;20462;-80
2024/01/10 04:22:17;;;;;;;57.77;28.60;;;;;;;-142.06;100.00;64312.41;5052836;28;20292;-79
2024/01/10 04:24:43;;;;;;;51.63;27.30;;;;;;;-142.06;100.00;64312.41;5053891;28;20485;-79
2024/01/10 04:27:10;;;;;;;52.00;27.50;;;;;;;-142.06;100.00;64312.41;5053882;28;20440;-79
2024/01/10 04:29:37;;;;;;;55.13;28.43;;;;;;;-142.06;100.00;64312.41;5056994;28;20507;-80
2024/01/10 04:32:04;;;;;;;51.23;27.47;;;;;;;-142.06;100.00;64312.41;5059534;28;20432;-79
2024/01/10 04:34:31;;;;;;;49.80;26.57;;;;;;;-142.06;100.00;64312.41;5049761;28;20462;-80
2024/01/10 04:36:58;;;;;;;55.37;27.13;;;;;;;-142.06;100.00;64312.41;5053912;28;20539;-79
2024/01/10 04:39:24;;;;;;;52.37;27.57;;;;;;;-142.06;100.00;64312.41;5050451;28;20456;-79
2024/01/10 04:41:51;;;;;;;52.93;27.97;;;;;;;-142.06;100.00;64312.41;5044610;28;20451;-79
2024/01/10 04:44:18;;;;;;;55.17;28.70;;;;;;;-142.06;100.00;64312.41;5052489;28;20446;-79
2024/01/10 04:46:45;;;;;;;54.57;28.97;;;;;;;-142.06;100.00;64312.41;5060518;28;20439;-79
2024/01/10 04:49:11;;;;;;;53.97;28.07;;;;;;;-142.06;100.00;64312.41;5052398;28;20471;-79
2024/01/10 04:51:39;;;;;;;61.73;28.63;;;;;;;-142.06;100.00;64312.41;5058978;28;20205;-79
2024/01/10 04:54:05;;;;;;;57.33;28.13;;;;;;;-142.06;100.00;64312.41;5053584;28;20436;-79
2024/01/10 04:56:32;;;;;;;55.07;28.53;;;;;;;-142.06;100.00;64312.41;5037308;28;20719;-79
2024/01/10 04:58:59;;;;;;;58.97;29.13;;;;;;;-142.06;100.00;64312.41;5040605;28;20205;-79
2024/01/10 05:01:26;;;;;;;55.93;28.83;;;;;;;-142.06;100.00;64312.41;5047815;28;20464;-80
2024/01/10 05:03:53;;;;;;;56.77;29.43;;;;;;;-142.06;100.00;64312.41;5053425;28;20532;-78
2024/01/10 05:06:19;;;;;;;54.03;27.57;;;;;;;-142.06;100.00;64312.41;5054594;28;20488;-79
2024/01/10 05:08:46;;;;;;;53.73;28.57;;;;;;;-142.06;100.00;64312.41;5064315;28;20436;-79
2024/01/10 05:11:15;;;;;;;56.30;29.80;;;;;;;-142.06;100.00;64312.41;5050613;28;20471;-79
2024/01/10 05:13:44;;;;;;;55.23;29.63;;;;;;;-142.06;100.00;64312.41;5060685;28;20203;-79
2024/01/10 05:16:11;;;;;;;56.27;29.00;;;;;;;-142.06;100.00;64312.41;5050774;28;20464;-79
2024/01/10 05:18:38;;;;;;;59.73;30.03;;;;;;;-142.06;100.00;64312.41;5051899;28;20498;-79
2024/01/10 05:21:05;;;;;;;56.03;29.30;;;;;;;-142.06;100.00;64312.41;5051879;28;20444;-79
2024/01/10 05:23:32;;;;;;;60.83;30.40;;;;;;;-142.06;100.00;64312.41;5034546;28;20435;-79
2024/01/10 05:25:59;;;;;;;55.97;28.93;;;;;;;-142.06;100.00;64312.41;5034025;28;20820;-79
2024/01/10 05:28:25;;;;;;;59.90;30.57;;;;;;;-142.06;100.00;64312.41;5052020;28;20463;-79
2024/01/10 05:30:53;;;;;;;60.47;29.67;;;;;;;-142.06;100.00;64312.41;5049082;28;20521;-78
2024/01/10 05:33:20;;;;;;;54.00;28.53;;;;;;;-142.06;100.00;64312.41;5045457;28;20505;-79
2024/01/10 05:35:47;;;;;;;56.03;29.10;;;;;;;-142.06;100.00;64312.41;5047644;28;20432;-79
2024/01/10 05:38:14;;;;;;;58.13;30.20;;;;;;;-142.06;100.00;64312.41;5053479;28;20529;-79
2024/01/10 05:40:42;;;;;;;62.47;29.50;;;;;;;-142.06;100.00;64312.41;5060848;28;20436;-79
2024/01/10 05:43:10;;;;;;;58.33;30.47;;;;;;;-142.06;100.00;64312.41;5051319;28;20478;-79
2024/01/10 05:45:37;;;;;;;60.53;30.97;;;;;;;-142.06;100.00;64312.41;5051282;28;20489;-79
2024/01/10 05:48:04;;;;;;;60.20;30.10;;;;;;;-142.06;100.00;64312.41;5051326;28;20996;-79
2024/01/10 05:50:31;;;;;;;62.43;30.70;;;;;;;-142.06;100.00;64312.41;5048624;28;20475;-79
2024/01/10 05:52:58;;;;;;;64.80;31.80;;;;;;;-142.06;100.00;64312.41;5053925;28;20439;-80
2024/01/10 05:55:24;;;;;;;52.97;29.57;;;;;;;-142.06;100.00;64312.41;5053745;28;20978;-79
2024/01/10 05:57:52;;;;;;;60.80;29.73;;;;;;;-142.06;100.00;64312.41;5044138;28;20444;-80
2024/01/10 06:00:20;;;;;;;59.27;29.13;;;;;;;-142.06;100.00;64312.41;5059407;28;20244;-79
2024/01/10 06:02:47;;;;;;;58.73;29.80;;;;;;;-142.06;100.00;64312.41;5037804;28;20432;-79
2024/01/10 06:05:14;;;;;;;59.83;29.37;;;;;;;-142.06;100.00;64312.41;5049905;28;20447;-79
2024/01/10 06:07:42;;;;;;;64.83;30.07;;;;;;;-142.06;100.00;64312.41;5052287;28;20431;-79
2024/01/10 06:10:09;;;;;;;58.60;29.33;;;;;;;-142.06;100.00;64312.41;5048864;28;20517;-79
2024/01/10 06:12:37;;;;;;;60.53;30.07;;;;;;;-142.06;100.00;64312.41;5053639;28;20436;-79
2024/01/10 06:15:06;;;;;;;60.00;30.13;;;;;;;-142.06;100.00;64312.41;5037196;28;20453;-79
2024/01/10 06:17:33;;;;;;;63.37;30.17;;;;;;;-142.06;100.00;64312.41;5059000;28;20484;-79
2024/01/10 06:20:00;;;;;;;58.20;30.30;;;;;;;-142.06;100.00;64312.41;5046932;28;20447;-81
2024/01/10 06:22:27;;;;;;;63.70;31.67;;;;;;;-142.06;100.00;64312.41;5062004;28;20428;-79
2024/01/10 06:24:56;;;;;;;58.67;29.73;;;;;;;-142.06;100.00;64312.41;5054600;28;20940;-79
2024/01/10 06:27:23;;;;;;;54.13;29.80;;;;;;;-142.06;100.00;64312.41;5027106;28;20849;-79
2024/01/10 06:29:49;;;;;;;62.37;29.87;;;;;;;-142.06;100.00;64312.41;5057345;28;20467;-79
2024/01/10 06:32:16;;;;;;;62.47;31.83;;;;;;;-142.06;100.00;64312.41;5055446;28;20477;-79
2024/01/10 06:34:43;;;;;;;62.97;32.90;;;;;;;-142.06;100.00;64312.41;5053437;28;20435;-79
2024/01/10 06:37:10;;;;;;;68.07;34.63;;;;;;;-142.06;100.00;64312.41;5055839;28;20443;-80
2024/01/10 06:39:37;;;;;;;63.17;33.57;;;;;;;-142.06;100.00;64312.41;5050165;28;20882;-79
2024/01/10 06:42:05;;;;;;;72.10;37.73;;;;;;;-142.06;100.00;64312.41;5054140;28;20452;-79
2024/01/10 06:44:33;;;;;;;73.43;37.47;;;;;;;-142.06;100.00;64312.41;5053198;28;20569;-79
2024/01/10 06:47:00;;;;;;;65.83;34.17;;;;;;;-142.06;100.00;64312.41;5055116;28;20572;-80
2024/01/10 06:49:27;;;;;;;66.37;33.97;;;;;;;-142.06;100.00;64312.41;5051373;28;20486;-80
2024/01/10 06:51:54;;;;;;;66.63;32.00;;;;;;;-142.06;100.00;64312.41;5077121;28;20454;-79
2024/01/10 06:54:21;;;;;;;62.30;30.80;;;;;;;-142.06;100.00;64312.41;5053399;28;20444;-80
2024/01/10 06:56:48;;;;;;;61.00;30.67;;;;;;;-142.06;100.00;64312.41;5056536;28;20436;-79
2024/01/10 06:59:14;;;;;;;65.00;30.73;;;;;;;-142.06;100.00;64312.41;5054816;28;20436;-79
2024/01/10 07:01:41;;;;;;;61.83;32.23;;;;;;;-142.06;100.00;64312.41;5054448;28;20539;-80
2024/01/10 07:04:08;;;;;;;68.37;32.53;;;;;;;-142.06;100.00;64312.41;5055168;28;20618;-80
2024/01/10 07:06:35;;;;;;;64.53;33.33;;;;;;;-142.06;100.00;64312.41;5055208;28;20428;-79
2024/01/10 07:09:02;;;;;;;79.27;37.57;;;;;;;-142.06;100.00;64312.41;5059675;28;20475;-79
2024/01/10 07:11:29;;;;;;;72.63;36.53;;;;;;;-142.06;100.00;64312.41;5053750;28;20514;-79
2024/01/10 07:13:56;;;;;;;64.47;34.57;;;;;;;-142.06;100.00;64312.41;5058143;28;20431;-80
2024/01/10 07:16:23;;;;;;;70.93;35.57;;;;;;;-142.06;100.00;64312.41;5052443;28;20251;-79
2024/01/10 07:18:51;;;;;;;63.47;33.47;;;;;;;-142.06;100.00;64312.41;5052487;28;20444;-79
2024/01/10 07:21:18;;;;;;;64.90;33.00;;;;;;;-142.06;100.00;64312.41;5053340;28;20443;-79
2024/01/10 07:23:45;;;;;;;59.07;31.20;;;;;;;-142.06;100.00;64312.41;5055429;28;20809;-79
2024/01/10 07:26:14;;;;;;;60.20;31.90;;;;;;;-142.06;100.00;64312.41;5052065;28;20531;-79
2024/01/10 07:28:41;;;;;;;61.30;30.37;;;;;;;-142.06;100.00;64312.41;5052192;28;20221;-79
2024/01/10 07:31:08;;;;;;;54.97;30.70;;;;;;;-142.06;100.00;64312.41;5054750;28;20210;-79
2024/01/10 07:33:35;;;;;;;65.20;32.53;;;;;;;-142.06;100.00;64312.41;5057403;28;20200;-79
2024/01/10 07:36:02;;;;;;;59.80;31.23;;;;;;;-142.06;100.00;64312.41;5037085;28;20194;-79
2024/01/10 07:38:29;;;;;;;64.00;31.80;;;;;;;-142.06;100.00;64312.41;5050475;28;20891;-79
2024/01/10 07:40:56;;;;;;;65.50;32.50;;;;;;;-142.06;100.00;64312.41;5053382;28;20197;-79
2024/01/10 07:43:22;;;;;;;63.03;31.30;;;;;;;-142.06;100.00;64312.41;5053224;28;20204;-77
2024/01/10 07:45:49;;;;;;;62.43;31.50;;;;;;;-142.06;100.00;64312.41;5051583;28;20209;-79
2024/01/10 07:48:16;;;;;;;58.90;31.10;;;;;;;-142.06;100.00;64312.41;5051771;28;20534;-79
2024/01/10 07:50:42;;;;;;;63.80;31.43;;;;;;;-142.06;100.00;64312.41;5038575;28;20589;-81
2024/01/10 07:53:09;;;;;;;60.93;31.20;;;;;;;-142.06;100.00;64312.41;5051747;28;20224;-80
2024/01/10 07:55:36;;;;;;;59.73;30.97;;;;;;;-142.06;100.00;64312.41;5017596;28;20210;-79
2024/01/10 07:58:05;;;;;;;60.70;32.20;;;;;;;-142.06;100.00;64312.41;5036731;28;20225;-81
2024/01/10 08:00:32;;;;;;;61.40;31.57;;;;;;;-142.06;100.00;64312.41;5056309;28;20206;-81
2024/01/10 08:02:58;;;;;;;60.20;30.90;;;;;;;-142.06;100.00;64312.41;5053799;28;20979;-80
2024/01/10 08:05:25;;;;;;;64.10;31.77;;;;;;;-142.06;100.00;64312.41;5032466;28;20221;-81
2024/01/10 08:07:53;;;;;;;55.50;30.23;;;;;;;-142.06;100.00;64312.41;5038069;28;20704;-80
2024/01/10 08:10:23;;;;;;;66.83;33.17;;;;;;;-142.06;100.00;64312.41;5055013;28;20291;-81
2024/01/10 08:12:53;;;;;;;58.43;32.03;;;;;;;-142.06;100.00;64312.41;5057582;28;20672;-80
2024/01/10 08:15:20;;;;;;;63.77;32.33;;;;;;;-142.06;100.00;64312.41;5054543;28;20205;-81
2024/01/10 08:17:47;;;;;;;65.43;32.83;;;;;;;-142.06;100.00;64312.41;5036798;28;20197;-80
2024/01/10 08:20:19;;;;;;;64.07;32.23;;;;;;;-142.06;100.00;64312.41;5033473;28;20209;-81
2024/01/10 08:22:47;;;;;;;64.00;31.10;;;;;;;-142.06;100.00;64312.41;5061045;28;20209;-81
2024/01/10 08:25:15;;;;;;;58.37;32.00;;;;;;;-142.06;100.00;64312.41;5060385;28;20189;-81
2024/01/10 08:27:42;;;;;;;59.47;32.00;;;;;;;-142.06;100.00;64312.41;5023938;28;20197;-80
2024/01/10 08:30:11;;;;;;;66.10;32.53;;;;;;;-142.06;100.00;64312.41;5036980;28;20240;-81
2024/01/10 08:32:38;;;;;;;66.33;31.67;;;;;;;-142.06;100.00;64312.41;5054214;28;20197;-80
2024/01/10 08:35:08;;;;;;;63.37;33.23;;;;;;;-142.06;100.00;64312.41;5038267;28;20197;-81
2024/01/10 08:37:37;;;;;;;57.27;32.17;;;;;;;-142.06;100.00;64312.41;5039721;28;20197;-80
2024/01/10 08:40:10;;;;;;;63.10;31.03;;;;;;;-142.06;100.00;64312.41;5055749;28;20244;-81
2024/01/10 08:42:37;;;;;;;58.23;32.20;;;;;;;-142.06;100.00;64312.41;5053931;28;20213;-81
2024/01/10 08:45:05;;;;;;;55.60;31.17;;;;;;;-142.06;100.00;64312.41;5065418;28;20661;-81
2024/01/10 08:47:32;;;;;;;57.47;31.70;;;;;;;-142.06;100.00;64312.41;5025149;28;20328;-81
2024/01/10 08:50:00;;;;;;;58.37;30.57;;;;;;;-142.06;100.00;64312.41;5039936;28;20270;-80
2024/01/10 08:52:27;;;;;;;57.13;30.30;;;;;;;-142.06;100.00;64312.41;5057347;28;20259;-81
2024/01/10 08:54:56;;;;;;;54.50;31.47;;;;;;;-142.06;100.00;64312.41;5035639;28;20217;-80
2024/01/10 08:57:23;;;;;;;58.30;32.57;;;;;;;-142.06;100.00;64312.41;5056694;28;20193;-81
2024/01/10 08:59:52;;;;;;;56.40;30.30;;;;;;;-142.06;100.00;64312.41;5062242;28;20217;-80
2024/01/10 09:02:19;;;;;;;60.00;31.90;;;;;;;-142.06;100.00;64312.41;5066608;28;20193;-81
2024/01/10 09:04:46;;;;;;;50.50;30.77;;;;;;;-142.06;100.00;64312.41;5062020;28;20236;-80
2024/01/10 09:07:12;;;;;;;57.27;32.80;;;;;;;-142.06;100.00;64312.41;5040435;28;20654;-81
2024/01/10 09:09:39;;;;;;;56.80;30.67;;;;;;;-142.06;100.00;64312.41;5072441;28;20188;-81
2024/01/10 09:12:06;;;;;;;52.73;30.30;;;;;;;-142.06;100.00;64312.41;5041753;28;20225;-81
2024/01/10 09:14:33;;;;;;;54.03;30.83;;;;;;;-142.06;100.00;64312.41;5046951;28;20194;-81
2024/01/10 09:17:02;;;;;;;50.07;30.47;;;;;;;-142.06;100.00;64312.41;5059236;28;20190;-81
2024/01/10 09:19:30;;;;;;;55.23;31.07;;;;;;;-142.06;100.00;64312.41;5038981;28;20201;-83
2024/01/10 09:21:57;;;;;;;53.50;29.93;;;;;;;-142.06;100.00;64312.41;5034249;28;20205;-81
2024/01/10 09:24:26;;;;;;;52.17;30.77;;;;;;;-142.06;100.00;64312.41;5036863;28;20258;-81
2024/01/10 09:26:56;;;;;;;60.03;32.00;;;;;;;-142.06;100.00;64312.41;5050723;28;20199;-82
2024/01/10 09:29:25;;;;;;;49.30;30.33;;;;;;;-142.06;100.00;64312.41;5037941;28;20206;-83
2024/01/10 09:31:52;;;;;;;54.10;30.50;;;;;;;-142.06;100.00;64312.41;5039487;28;20702;-81
2024/01/10 09:34:19;;;;;;;50.23;29.70;;;;;;;-142.06;100.00;64312.41;5057211;28;20185;-82
2024/01/10 09:36:47;;;;;;;50.87;31.17;;;;;;;-142.06;100.00;64312.41;5038151;28;20288;-82
2024/01/10 09:39:13;;;;;;;52.47;31.23;;;;;;;-142.06;100.00;64312.41;5014880;28;20274;-81
2024/01/10 09:41:48;;;;;;;51.67;30.43;;;;;;;-142.06;100.00;64312.41;5038221;28;20201;-81
2024/01/10 09:44:18;;;;;;;53.57;30.17;;;;;;;-142.06;100.00;64312.41;5031300;28;20212;-81
2024/01/10 09:46:48;;;;;;;49.63;30.03;;;;;;;-142.06;100.00;64312.41;5035173;28;20413;-81
2024/01/10 09:49:15;;;;;;;51.10;29.50;;;;;;;-142.06;100.00;64312.41;5043201;28;20201;-82
2024/01/10 09:51:42;;;;;;;53.60;29.97;;;;;;;-142.06;100.00;64312.41;5014447;28;20277;-83
2024/01/10 09:54:09;;;;;;;52.17;30.13;;;;;;;-142.06;100.00;64312.41;5038101;28;20209;-82
2024/01/10 09:56:36;;;;;;;51.80;29.47;;;;;;;-142.06;100.00;64312.41;5037717;28;20194;-81
2024/01/10 09:59:06;;;;;;;52.53;29.67;;;;;;;-142.06;100.00;64312.41;5019491;28;20206;-84
2024/01/10 10:01:33;;;;;;;55.37;29.87;;;;;;;-142.06;100.00;64312.41;5054479;28;20232;-84
2024/01/10 10:04:01;;;;;;;49.73;29.37;;;;;;;-142.06;100.00;64312.41;5037676;28;20210;-83
2024/01/10 10:06:28;;;;;;;51.67;29.17;;;;;;;-142.06;100.00;64312.41;5037889;28;20209;-81
2024/01/10 10:08:55;;;;;;;53.00;29.13;;;;;;;-142.06;100.00;64312.41;5054218;28;20232;-85
2024/01/10 10:11:22;;;;;;;42.73;27.83;;;;;;;-142.06;100.00;64312.41;5041415;28;20261;-83
2024/01/10 10:13:49;;;;;;;50.43;29.53;;;;;;;-142.06;100.00;64312.41;5054851;28;20216;-83
2024/01/10 10:16:23;;;;;;;45.00;28.17;;;;;;;-142.06;100.00;64312.41;5048413;28;20205;-85
2024/01/10 10:18:50;;;;;;;45.47;27.53;;;;;;;-142.06;100.00;64312.41;5030098;28;20206;-81
2024/01/10 10:21:18;;;;;;;47.37;28.97;;;;;;;-142.06;100.00;64312.41;5039538;28;20204;-83
2024/01/10 10:23:58;;;;;;;47.13;28.47;;;;;;;-142.06;100.00;64312.41;5056246;28;20196;-82
2024/01/10 10:26:27;;;;;;;42.80;27.20;;;;;;;-142.06;100.00;64312.41;5033945;28;20717;-86
2024/01/10 10:28:54;;;;;;;60.53;36.63;;;;;;;-142.06;100.00;64312.41;5032496;28;20205;-82
2024/01/10 10:31:21;;;;;;;51.03;30.50;;;;;;;-142.06;100.00;64312.41;5031523;28;20283;-85
2024/01/10 10:33:50;;;;;;;38.93;25.27;;;;;;;-142.06;100.00;64312.41;5055748;28;20197;-83
2024/01/10 10:36:21;;;;;;;38.77;25.40;;;;;;;-142.06;100.00;64312.41;5040330;28;20201;-84
2024/01/10 10:38:48;;;;;;;40.03;23.83;;;;;;;-142.06;100.00;64312.41;5049675;28;20279;-84
2024/01/10 10:41:15;;;;;;;39.30;25.00;;;;;;;-142.06;100.00;64312.41;5057954;28;20217;-84
2024/01/10 10:43:42;;;;;;;38.90;24.17;;;;;;;-142.06;100.00;64312.41;5037393;28;20189;-85
2024/01/10 10:46:12;;;;;;;38.03;23.60;;;;;;;-142.06;100.00;64312.41;5036694;28;20752;-85
2024/01/10 10:48:39;;;;;;;44.87;26.47;;;;;;;-142.06;100.00;64312.41;5037018;28;20229;-85
2024/01/10 10:51:36;;;;;;;38.33;26.00;;;;;;;-142.06;100.00;64312.41;5041616;28;20217;-84
2024/01/10 10:54:04;;;;;;;34.33;24.13;;;;;;;-142.06;100.00;64312.41;5035816;28;20289;-86
2024/01/10 10:56:32;;;;;;;40.73;25.57;;;;;;;-142.06;100.00;64312.41;5058785;28;20201;-84